KAHN/AHN METAR and TAF weather

Enter ICAO airport designator
Station Type Date Time Source
KAHN METAR 2022/05/23 14:27 UTC NOAA

KAHN 231427Z 12005KT 5SM -RA BR SCT015 BKN022 OVC050 21/19 A3012 RMK AO2 P0006 T02060194


Station Type Date Time Source
KAHN Decoded METAR 2022/05/23 14:27 UTC NOAA

ATHENS BEN EPPS AIRPORT, GA, United States (KAHN) 33-57N 083-20W 244M
May 23, 2022 - 10:27 AM EDT / 2022.05.23 1427 UTC
Wind: from the ESE (120 degrees) at 6 MPH (5 KT):0
Visibility: 5 mile(s):0
Sky conditions: overcast
Weather: light rain; mist
Precipitation last hour: 0.06 inches
Temperature: 69.1 F (20.6 C)
Dew Point: 66.9 F (19.4 C)
Relative Humidity: 92%
Pressure (altimeter): 30.12 in. Hg (1019 hPa)
ob: KAHN 231427Z 12005KT 5SM -RA BR SCT015 BKN022 OVC050 21/19 A3012 RMK AO2 P0006 T02060194
cycle: 14

Station Type Date Time Source
KAHN TAF 2022/05/23 12:40 UTC NOAA

TAF KAHN 231138Z 2312/2412 VRB03KT 5SM RA SCT018 BKN030 OVC050
TEMPO 2313/2317 VRB15G30KT 2SM TSRA BKN012CB
FM231700 14007KT 6SM SHRA SCT015 BKN025 OVC035
FM232100 21010KT P6SM VCSH SCT030 OVC040
FM240100 21006KT 6SM BR VCSH OVC030
FM240500 VRB03KT 4SM BR BKN005 OVC006

Example: see airport list